Weather History for Monett, MO

Change the Weather History Date:

Tuesday, November 6, 2012

  Actual Average (KJLN) Record (KJLN)
Temperature  
Mean Temperature 48 °F 53 °F  
Max Temperature 55 °F 64 °F 81 °F (1980)
Min Temperature 41 °F 42 °F 18 °F (1959)
Degree Days  
Heating Degree Days 17 13  
Month to date heating degree days 71  
Since 1 July heating degree days 323  
Cooling Degree Days 0 0  
Month to date cooling degree days 5  
Year to date cooling degree days 1696  
Moisture  
Dew Point 37 °F    
Average Humidity 73    
Maximum Humidity 100    
Minimum Humidity 50    
Precipitation  
Precipitation 0.00 in 0.13 in 2.86 in (1996)
Month to date precipitation 0.79  
Year to date precipitation 40.74  
Sea Level Pressure  
Sea Level Pressure 30.05 in    
Wind  
Wind Speed 6 mph (WNW)    
Max Wind Speed 18 mph    
Max Gust Speed 22 mph    
Visibility 9 miles    
Events      
T = Trace of Precipitation, MM = Missing Value Source: NWS Daily Summary

Daily Weather History Graph

Daily Weather History Graph

Search for Another Location

Airport:

Trip Planner

Search our weather history database for the weather conditions in past years. The results will help you decide how hot, cold, wet, or windy it might be!

Date:

Astronomy

Nov. 06, 2012 Rise Set
Actual Time 6:45 AM CST 5:13 PM CST
Civil Twilight 6:18 AM CST 5:40 PM CST
Nautical Twilight 5:47 AM CST 6:11 PM CST
Astronomical Twilight 5:17 AM CST 6:41 PM CST
Moon 11:51 PM CST (11/6) 12:39 PM CST (11/6)
Length of Visible Light 11h 22m
Length of Day
10h 27m
Waning Gibbous, 53% of the Moon is Illuminated
Nov 6
Waning Gibbous
Nov 6
Last Quarter
Nov 13
New
Nov 20
First Quarter
Nov 28
Full

Hourly Weather History & Observations

Time (CST) Temp. Windchill Dew Point Humidity Pressure Visibility Wind Dir Wind Speed Gust Speed Precip Events Conditions
12:15 AM 41.0 °F 35.8 °F 41.0 °F 100% 30.07 in 4.0 mi NNW 8.1 mph - N/A   Overcast
12:35 AM 41.0 °F 38.0 °F 41.0 °F 100% 30.06 in 5.0 mi NNW 4.6 mph - N/A   Overcast
12:55 AM 41.0 °F 36.4 °F 41.0 °F 100% 30.07 in 7.0 mi NNW 6.9 mph - N/A   Overcast
1:15 AM 41.0 °F 36.4 °F 41.0 °F 100% 30.06 in 7.0 mi NNW 6.9 mph - N/A   Overcast
1:35 AM 41.0 °F 38.0 °F 39.2 °F 93% 30.06 in 7.0 mi NNW 4.6 mph - N/A   Overcast
1:55 AM 41.0 °F 37.1 °F 39.2 °F 93% 30.06 in 7.0 mi NW 5.8 mph - N/A   Overcast
2:15 AM 41.0 °F 38.0 °F 39.2 °F 93% 30.07 in 7.0 mi NNW 4.6 mph - N/A   Overcast
2:35 AM 41.0 °F 38.0 °F 39.2 °F 93% 30.06 in 7.0 mi NW 4.6 mph - N/A   Overcast
2:55 AM 41.0 °F 38.0 °F 39.2 °F 93% 30.06 in 7.0 mi NW 4.6 mph - N/A   Overcast
3:15 AM 41.0 °F 38.0 °F 39.2 °F 93% 30.05 in 7.0 mi NW 4.6 mph - N/A   Overcast
3:35 AM 41.0 °F 38.0 °F 39.2 °F 93% 30.06 in 7.0 mi NNW 4.6 mph - N/A   Overcast
3:55 AM 41.0 °F 36.4 °F 39.2 °F 93% 30.06 in 7.0 mi NW 6.9 mph - N/A   Overcast
4:15 AM 41.0 °F 38.0 °F 39.2 °F 93% 30.06 in 7.0 mi NW 4.6 mph - N/A   Overcast
4:35 AM 41.0 °F 38.0 °F 39.2 °F 93% 30.06 in 7.0 mi NW 4.6 mph - N/A   Overcast
4:55 AM 41.0 °F - 39.2 °F 93% 30.05 in 7.0 mi Calm Calm - N/A   Overcast
5:15 AM 41.0 °F - 39.2 °F 93% 30.06 in 7.0 mi Calm Calm - N/A   Overcast
5:55 AM 41.0 °F - 39.2 °F 93% 30.04 in 7.0 mi Calm Calm - N/A   Overcast
6:15 AM 41.0 °F 39.0 °F 37.4 °F 87% 30.06 in 10.0 mi WNW 3.5 mph - N/A   Overcast
6:35 AM 41.0 °F 38.0 °F 39.2 °F 93% 30.08 in 7.0 mi WNW 4.6 mph - N/A   Overcast
6:55 AM 41.0 °F 39.0 °F 39.2 °F 93% 30.07 in 7.0 mi West 3.5 mph - N/A   Overcast
7:15 AM 41.0 °F 39.0 °F 37.4 °F 87% 30.07 in 10.0 mi WSW 3.5 mph - N/A   Overcast
7:35 AM 41.0 °F 39.0 °F 39.2 °F 93% 30.08 in 7.0 mi West 3.5 mph - N/A   Overcast
7:55 AM 41.0 °F - 39.2 °F 93% 30.08 in 7.0 mi Calm Calm - N/A   Overcast
8:15 AM 42.8 °F 39.3 °F 39.2 °F 87% 30.09 in 7.0 mi West 5.8 mph - N/A   Overcast
8:35 AM 42.8 °F 40.1 °F 37.4 °F 81% 30.07 in 7.0 mi SW 4.6 mph - N/A   Overcast
9:15 AM 42.8 °F 38.6 °F 39.2 °F 87% 30.07 in 7.0 mi WSW 6.9 mph - N/A   Overcast
9:35 AM 44.6 °F 40.2 °F 39.2 °F 81% 30.07 in 7.0 mi SW 8.1 mph - N/A   Overcast
9:55 AM 44.6 °F 40.2 °F 37.4 °F 76% 30.07 in 10.0 mi WSW 8.1 mph - N/A   Mostly Cloudy
10:15 AM 46.4 °F 42.4 °F 39.2 °F 76% 30.07 in 10.0 mi SW 8.1 mph - N/A   Scattered Clouds
10:35 AM 46.4 °F 42.4 °F 41.0 °F 81% 30.06 in 10.0 mi WSW 8.1 mph - N/A   Scattered Clouds
10:55 AM 48.2 °F - 41.0 °F 76% 30.06 in 10.0 mi WSW 10.4 mph - N/A   Scattered Clouds
11:15 AM 50.0 °F - 39.2 °F 66% 30.06 in 10.0 mi West 11.5 mph - N/A   Scattered Clouds
11:35 AM 50.0 °F - 39.2 °F 66% 30.05 in 10.0 mi West 9.2 mph 18.4 mph N/A   Scattered Clouds
11:55 AM 51.8 °F - 41.0 °F 67% 30.04 in 10.0 mi WSW 9.2 mph - N/A   Scattered Clouds
12:15 PM 51.8 °F - 41.0 °F 67% 30.04 in 10.0 mi West 9.2 mph - N/A   Clear
12:35 PM 53.6 °F - 41.0 °F 62% 30.03 in 10.0 mi West 12.7 mph - N/A   Scattered Clouds
12:55 PM 53.6 °F - 39.2 °F 58% 30.02 in 10.0 mi West 12.7 mph 18.4 mph N/A   Mostly Cloudy
1:15 PM 55.4 °F - 39.2 °F 54% 30.02 in 10.0 mi WNW 13.8 mph 19.6 mph N/A   Scattered Clouds
1:35 PM 55.4 °F - 41.0 °F 58% 30.02 in 10.0 mi West 16.1 mph - N/A   Clear
1:55 PM 55.4 °F - 41.0 °F 58% 30.01 in 10.0 mi WNW 18.4 mph 21.9 mph N/A   Clear
2:15 PM 53.6 °F - 41.0 °F 62% 30.00 in 10.0 mi West 16.1 mph 19.6 mph N/A   Clear
2:35 PM 55.4 °F - 41.0 °F 58% 30.00 in 10.0 mi WNW 16.1 mph - N/A   Clear
2:55 PM 55.4 °F - 41.0 °F 58% 30.00 in 10.0 mi West 9.2 mph - N/A   Clear
3:15 PM 53.6 °F - 39.2 °F 58% 30.00 in 10.0 mi West 10.4 mph - N/A   Clear
3:35 PM 55.4 °F - 39.2 °F 54% 30.01 in 10.0 mi WNW 11.5 mph - N/A   Clear
4:15 PM 55.4 °F - 37.4 °F 51% 30.01 in 10.0 mi NW 10.4 mph - N/A   Clear
4:35 PM 53.6 °F - 39.2 °F 58% 30.01 in 10.0 mi WNW 8.1 mph - N/A   Clear
4:55 PM 51.8 °F - 37.4 °F 58% 30.01 in 10.0 mi WNW 5.8 mph - N/A   Clear
5:15 PM 50.0 °F - 37.4 °F 62% 30.01 in 10.0 mi West 4.6 mph - N/A   Clear
5:35 PM 50.0 °F - 37.4 °F 62% 30.02 in 10.0 mi West 5.8 mph - N/A   Clear
5:55 PM 50.0 °F - 37.4 °F 62% 30.02 in 10.0 mi West 5.8 mph - N/A   Clear
6:15 PM 48.2 °F - 37.4 °F 66% 30.03 in 10.0 mi West 3.5 mph - N/A   Clear
6:35 PM 50.0 °F - 37.4 °F 62% 30.04 in 10.0 mi WNW 4.6 mph - N/A   Clear
6:55 PM 46.4 °F 44.3 °F 37.4 °F 71% 30.04 in 10.0 mi WNW 4.6 mph - N/A   Clear
7:15 PM 46.4 °F 44.3 °F 37.4 °F 71% 30.05 in 10.0 mi WNW 4.6 mph - N/A   Clear
7:35 PM 46.4 °F 42.4 °F 35.6 °F 66% 30.05 in 10.0 mi WNW 8.1 mph - N/A   Clear
7:55 PM 50.0 °F - 32.0 °F 50% 30.05 in 10.0 mi NW 8.1 mph - N/A   Clear
8:15 PM 46.4 °F 42.4 °F 32.0 °F 57% 30.05 in 10.0 mi NW 8.1 mph - N/A   Clear
8:35 PM 46.4 °F 44.3 °F 32.0 °F 57% 30.06 in 10.0 mi NW 4.6 mph - N/A   Clear
8:55 PM 44.6 °F 43.1 °F 30.2 °F 57% 30.06 in 10.0 mi WNW 3.5 mph - N/A   Clear
9:15 PM 44.6 °F 42.2 °F 30.2 °F 57% 30.06 in 10.0 mi WNW 4.6 mph - N/A   Clear
9:35 PM 44.6 °F 43.1 °F 30.2 °F 57% 30.06 in 10.0 mi WNW 3.5 mph - N/A   Clear
9:55 PM 44.6 °F 41.4 °F 28.4 °F 53% 30.06 in 10.0 mi NW 5.8 mph - N/A   Clear
10:15 PM 44.6 °F - 28.4 °F 53% 30.06 in 10.0 mi Calm Calm - N/A   Clear
10:35 PM 44.6 °F 43.1 °F 28.4 °F 53% 30.06 in 10.0 mi WNW 3.5 mph - N/A   Clear
10:55 PM 44.6 °F - 28.4 °F 53% 30.06 in 10.0 mi Calm Calm - N/A   Clear
11:15 PM 42.8 °F - 28.4 °F 57% 30.05 in 10.0 mi Calm Calm - N/A   Clear
11:35 PM 42.8 °F - 28.4 °F 57% 30.06 in 10.0 mi Calm Calm - N/A   Clear
11:55 PM 41.0 °F 39.0 °F 28.4 °F 61% 30.06 in 10.0 mi West 3.5 mph - N/A   Clear